NATURA VA

 METAR AND TAF INFORMATION
METAR FOR NZWN
ADDS - METARS form results

(1856 UTC 18 February 2019)
Data provider http://aviationweather.gov/metar/data/
 
METAR text: NZWN 181830Z AUTO 02012KT 9999 OVC021/// 18/13 Q1013 NOSIG
Conditions at: NZWN (WELLINGTON INTL , NZ) observed 1830 UTC 18 February 2019
Temperature: 18.0°C (64°F)
Dewpoint: 13.0°C (55°F) [RH = 73%]
Pressure (altimeter): 29.91 inches Hg (1013.0 mb)
Winds: from the NNE (20 degrees) at 14 MPH (12 knots; 6.2 m/s)
Visibility: 6 or more miles (10+ km)
Ceiling: 2100 feet AGL
Clouds: overcast cloud deck at 2100 feet AGL
Weather: no significant weather observed at this time

METAR text: NZWN 181800Z AUTO 03012KT 9999 BKN021/// 17/13 Q1013 NOSIG
Conditions at: NZWN (WELLINGTON INTL , NZ) observed 1800 UTC 18 February 2019
Temperature: 17.0°C (63°F)
Dewpoint: 13.0°C (55°F) [RH = 77%]
Pressure (altimeter): 29.91 inches Hg (1013.0 mb)
Winds: from the NNE (30 degrees) at 14 MPH (12 knots; 6.2 m/s)
Visibility: 6 or more miles (10+ km)
Ceiling: 2100 feet AGL
Clouds: broken clouds at 2100 feet AGL
Weather: no significant weather observed at this time

Forecast for: NZWN (WELLINGTON INTL , NZ)
Text: TAF NZWN 181707Z 1818/1918 02015KT 9999 FEW025
Forecast period: 1800 UTC 18 February 2019 to 0000 UTC 19 February 2019
Forecast type: FROM: standard forecast or significant change
Winds: from the NNE (20 degrees) at 17 MPH (15 knots; 7.7 m/s)
Visibility: 6 or more miles 10+ km)
Ceiling: at least 12,000 feet AGL
Clouds: few clouds at 2500 feet AGL
Weather: no significant weather forecast for this period
Text: BECMG 1900/1902 01020G30KT
Forecast period: 0000 to 1800 UTC 19 February 2019
Forecast type: BECOMING: Conditions expected to become as follows by 0200 UTC 19 February 2019
Winds: from the N (10 degrees) at 23 MPH (20 knots; 10.3 m/s)
gusting to 34 MPH (30 knots; 15.4 m/s)
Visibility: 6 or more miles 10+ km)
Ceiling: at least 12,000 feet AGL
Clouds: few clouds at 2500 feet AGL
Weather: no significant weather forecast for this period

 AIRPORT MAP

 RUNWAY INFORMATION
Runway 16 Runway length 6352 ft Runway width 148 ft
Runway elevation 41 ft Runway displaced threshold 210 ft Runway heading 183
Runway 34 Runway length 6352 ft Runway width 148 ft
Runway elevation 23 ft Runway displaced threshold 210 ft Runway heading 3

 AIRPORT FREQUENCIES
Type APP Name APP Frequency 122.3 MHZ
Type ATIS Name ATIS Frequency 126.9 MHZ
Type GND Name GND Frequency 121.9 MHZ
Type TWR Name TWR Frequency 118.8 MHZ

 AIRPORT NEAR NAVIGATION AIDS
Type NDB Name Newlands Frequency 358 KHZ
Type NDB Name Titahi Bay Frequency 234 KHZ
Type VOR-DME Name Wellington Frequency 112300 KHZ
Type NDB Name Wellington Frequency 298 KHZ



Powered by Virtual Airlines Manager [v2.6.2]